sensor_id;sensor_type;location;lat;lon;timestamp;temperature;humidity
25410;DHT22;13339;50.840;4.346;2024-03-29T00:02:24;12.60;99.90
25410;DHT22;13339;50.840;4.346;2024-03-29T00:04:50;12.50;99.90
25410;DHT22;13339;50.840;4.346;2024-03-29T00:07:15;12.50;99.90
25410;DHT22;13339;50.840;4.346;2024-03-29T00:09:41;12.60;99.90
25410;DHT22;13339;50.840;4.346;2024-03-29T00:12:07;12.70;99.90
25410;DHT22;13339;50.840;4.346;2024-03-29T00:14:32;12.60;99.90
25410;DHT22;13339;50.840;4.346;2024-03-29T00:16:58;12.60;99.90
25410;DHT22;13339;50.840;4.346;2024-03-29T00:19:24;12.40;99.90
25410;DHT22;13339;50.840;4.346;2024-03-29T00:21:49;12.50;99.90
25410;DHT22;13339;50.840;4.346;2024-03-29T00:24:15;12.60;99.90
25410;DHT22;13339;50.840;4.346;2024-03-29T00:26:40;12.60;99.90
25410;DHT22;13339;50.840;4.346;2024-03-29T00:29:06;12.80;99.90
25410;DHT22;13339;50.840;4.346;2024-03-29T00:31:32;12.80;99.90
25410;DHT22;13339;50.840;4.346;2024-03-29T00:33:57;12.80;99.90
25410;DHT22;13339;50.840;4.346;2024-03-29T00:36:23;12.90;99.90
25410;DHT22;13339;50.840;4.346;2024-03-29T00:38:48;12.90;99.90
25410;DHT22;13339;50.840;4.346;2024-03-29T00:41:14;13.00;99.90
25410;DHT22;13339;50.840;4.346;2024-03-29T00:43:39;13.00;99.90
25410;DHT22;13339;50.840;4.346;2024-03-29T00:46:05;12.90;99.90
25410;DHT22;13339;50.840;4.346;2024-03-29T00:48:31;13.00;99.90
25410;DHT22;13339;50.840;4.346;2024-03-29T00:50:56;13.00;99.90
25410;DHT22;13339;50.840;4.346;2024-03-29T00:53:22;13.00;99.90
25410;DHT22;13339;50.840;4.346;2024-03-29T00:55:48;12.90;99.90
25410;DHT22;13339;50.840;4.346;2024-03-29T00:58:13;12.90;99.90
25410;DHT22;13339;50.840;4.346;2024-03-29T01:00:39;12.90;99.90
25410;DHT22;13339;50.840;4.346;2024-03-29T01:03:05;13.00;99.90
25410;DHT22;13339;50.840;4.346;2024-03-29T01:05:30;13.10;99.90
25410;DHT22;13339;50.840;4.346;2024-03-29T01:07:56;13.10;99.90
25410;DHT22;13339;50.840;4.346;2024-03-29T01:10:21;13.20;99.90
25410;DHT22;13339;50.840;4.346;2024-03-29T01:12:48;13.30;99.90
25410;DHT22;13339;50.840;4.346;2024-03-29T01:15:13;13.30;99.90
25410;DHT22;13339;50.840;4.346;2024-03-29T01:17:39;13.30;99.90
25410;DHT22;13339;50.840;4.346;2024-03-29T01:20:05;13.30;99.90
25410;DHT22;13339;50.840;4.346;2024-03-29T01:22:31;13.20;99.90
25410;DHT22;13339;50.840;4.346;2024-03-29T01:24:57;13.10;99.90
25410;DHT22;13339;50.840;4.346;2024-03-29T01:27:23;13.00;99.90
25410;DHT22;13339;50.840;4.346;2024-03-29T01:29:48;13.10;99.90
25410;DHT22;13339;50.840;4.346;2024-03-29T01:32:14;13.00;99.90
25410;DHT22;13339;50.840;4.346;2024-03-29T01:34:40;12.90;99.90
25410;DHT22;13339;50.840;4.346;2024-03-29T01:37:05;12.80;99.90
25410;DHT22;13339;50.840;4.346;2024-03-29T01:39:31;12.90;99.90
25410;DHT22;13339;50.840;4.346;2024-03-29T01:41:57;12.70;99.90
25410;DHT22;13339;50.840;4.346;2024-03-29T01:44:22;12.60;99.90
25410;DHT22;13339;50.840;4.346;2024-03-29T01:46:48;12.50;99.90
25410;DHT22;13339;50.840;4.346;2024-03-29T01:49:14;12.60;99.90
25410;DHT22;13339;50.840;4.346;2024-03-29T01:51:40;12.70;99.90
25410;DHT22;13339;50.840;4.346;2024-03-29T01:54:08;12.70;99.90
25410;DHT22;13339;50.840;4.346;2024-03-29T01:56:35;12.80;99.90
25410;DHT22;13339;50.840;4.346;2024-03-29T01:59:03;12.70;99.90
25410;DHT22;13339;50.840;4.346;2024-03-29T02:01:30;12.60;99.90
25410;DHT22;13339;50.840;4.346;2024-03-29T02:03:56;12.50;99.90
25410;DHT22;13339;50.840;4.346;2024-03-29T02:06:22;12.30;99.90
25410;DHT22;13339;50.840;4.346;2024-03-29T02:08:50;12.20;99.90
25410;DHT22;13339;50.840;4.346;2024-03-29T02:11:17;12.10;99.90
25410;DHT22;13339;50.840;4.346;2024-03-29T02:13:44;12.10;99.90
25410;DHT22;13339;50.840;4.346;2024-03-29T02:16:10;12.10;99.90
25410;DHT22;13339;50.840;4.346;2024-03-29T02:18:35;11.90;99.90
25410;DHT22;13339;50.840;4.346;2024-03-29T02:21:01;11.90;99.90
25410;DHT22;13339;50.840;4.346;2024-03-29T02:23:27;11.90;99.90
25410;DHT22;13339;50.840;4.346;2024-03-29T02:25:55;11.90;99.90
25410;DHT22;13339;50.840;4.346;2024-03-29T02:28:22;11.90;99.90
25410;DHT22;13339;50.840;4.346;2024-03-29T02:30:48;12.00;99.90
25410;DHT22;13339;50.840;4.346;2024-03-29T02:33:14;12.00;99.90
25410;DHT22;13339;50.840;4.346;2024-03-29T02:35:40;12.00;99.90
25410;DHT22;13339;50.840;4.346;2024-03-29T02:38:05;11.90;99.90
25410;DHT22;13339;50.840;4.346;2024-03-29T02:40:31;12.00;99.90
25410;DHT22;13339;50.840;4.346;2024-03-29T02:42:56;11.90;99.90
25410;DHT22;13339;50.840;4.346;2024-03-29T02:45:22;11.80;99.90
25410;DHT22;13339;50.840;4.346;2024-03-29T02:47:47;11.90;99.90
25410;DHT22;13339;50.840;4.346;2024-03-29T02:50:15;11.80;99.90
25410;DHT22;13339;50.840;4.346;2024-03-29T02:52:40;11.90;99.90
25410;DHT22;13339;50.840;4.346;2024-03-29T02:55:06;12.00;99.90
25410;DHT22;13339;50.840;4.346;2024-03-29T02:57:32;11.90;99.90
25410;DHT22;13339;50.840;4.346;2024-03-29T02:59:58;11.80;99.90
25410;DHT22;13339;50.840;4.346;2024-03-29T03:02:23;11.80;99.90
25410;DHT22;13339;50.840;4.346;2024-03-29T03:04:49;11.90;99.90
25410;DHT22;13339;50.840;4.346;2024-03-29T03:07:14;11.90;99.90
25410;DHT22;13339;50.840;4.346;2024-03-29T03:09:58;11.90;99.90
25410;DHT22;13339;50.840;4.346;2024-03-29T03:12:43;11.80;99.90
25410;DHT22;13339;50.840;4.346;2024-03-29T03:15:09;11.80;99.90
25410;DHT22;13339;50.840;4.346;2024-03-29T03:17:34;11.70;99.90
25410;DHT22;13339;50.840;4.346;2024-03-29T03:20:00;11.50;99.90
25410;DHT22;13339;50.840;4.346;2024-03-29T03:22:25;11.50;99.90
25410;DHT22;13339;50.840;4.346;2024-03-29T03:24:51;11.30;99.90
25410;DHT22;13339;50.840;4.346;2024-03-29T03:27:17;11.30;99.90
25410;DHT22;13339;50.840;4.346;2024-03-29T03:29:42;11.30;99.90
25410;DHT22;13339;50.840;4.346;2024-03-29T03:32:08;11.20;99.90
25410;DHT22;13339;50.840;4.346;2024-03-29T03:34:34;11.20;99.90
25410;DHT22;13339;50.840;4.346;2024-03-29T03:37:01;11.10;99.90
25410;DHT22;13339;50.840;4.346;2024-03-29T03:39:26;11.20;99.90
25410;DHT22;13339;50.840;4.346;2024-03-29T03:41:52;11.30;99.90
25410;DHT22;13339;50.840;4.346;2024-03-29T03:44:18;11.40;99.90
25410;DHT22;13339;50.840;4.346;2024-03-29T03:46:43;11.30;99.90
25410;DHT22;13339;50.840;4.346;2024-03-29T03:49:09;11.30;99.90
25410;DHT22;13339;50.840;4.346;2024-03-29T03:51:35;11.40;99.90
25410;DHT22;13339;50.840;4.346;2024-03-29T03:54:00;11.40;99.90
25410;DHT22;13339;50.840;4.346;2024-03-29T03:56:28;11.50;99.90
25410;DHT22;13339;50.840;4.346;2024-03-29T03:58:53;11.40;99.90
25410;DHT22;13339;50.840;4.346;2024-03-29T04:01:19;11.50;99.90
25410;DHT22;13339;50.840;4.346;2024-03-29T04:03:44;11.70;99.90
25410;DHT22;13339;50.840;4.346;2024-03-29T04:06:10;11.50;99.90
25410;DHT22;13339;50.840;4.346;2024-03-29T04:08:36;11.40;99.90
25410;DHT22;13339;50.840;4.346;2024-03-29T04:11:05;11.20;99.90
25410;DHT22;13339;50.840;4.346;2024-03-29T04:13:34;11.20;99.90
25410;DHT22;13339;50.840;4.346;2024-03-29T04:16:10;11.10;99.90
25410;DHT22;13339;50.840;4.346;2024-03-29T04:18:36;11.00;99.90
25410;DHT22;13339;50.840;4.346;2024-03-29T04:21:03;11.10;99.90
25410;DHT22;13339;50.840;4.346;2024-03-29T04:23:29;11.00;99.90
25410;DHT22;13339;50.840;4.346;2024-03-29T04:25:56;11.10;99.90
25410;DHT22;13339;50.840;4.346;2024-03-29T04:28:22;11.20;99.90
25410;DHT22;13339;50.840;4.346;2024-03-29T04:31:05;11.10;99.90
25410;DHT22;13339;50.840;4.346;2024-03-29T04:33:31;11.10;99.90
25410;DHT22;13339;50.840;4.346;2024-03-29T04:36:01;11.20;99.90
25410;DHT22;13339;50.840;4.346;2024-03-29T04:38:27;11.20;99.90
25410;DHT22;13339;50.840;4.346;2024-03-29T04:40:54;11.20;99.90
25410;DHT22;13339;50.840;4.346;2024-03-29T04:43:27;11.00;99.90
25410;DHT22;13339;50.840;4.346;2024-03-29T04:46:03;10.90;99.90
25410;DHT22;13339;50.840;4.346;2024-03-29T04:48:30;10.70;99.90
25410;DHT22;13339;50.840;4.346;2024-03-29T04:50:56;10.50;99.90
25410;DHT22;13339;50.840;4.346;2024-03-29T04:53:22;10.30;99.90
25410;DHT22;13339;50.840;4.346;2024-03-29T04:55:53;10.20;99.90
25410;DHT22;13339;50.840;4.346;2024-03-29T04:58:19;10.20;99.90
25410;DHT22;13339;50.840;4.346;2024-03-29T05:00:45;10.10;99.90
25410;DHT22;13339;50.840;4.346;2024-03-29T05:03:11;10.00;99.90
25410;DHT22;13339;50.840;4.346;2024-03-29T05:05:36;9.80;99.90
25410;DHT22;13339;50.840;4.346;2024-03-29T05:08:02;9.90;99.90
25410;DHT22;13339;50.840;4.346;2024-03-29T05:10:27;9.80;99.90
25410;DHT22;13339;50.840;4.346;2024-03-29T05:12:53;9.90;99.90
25410;DHT22;13339;50.840;4.346;2024-03-29T05:15:19;10.00;99.90
25410;DHT22;13339;50.840;4.346;2024-03-29T05:17:45;10.10;99.90
25410;DHT22;13339;50.840;4.346;2024-03-29T05:20:11;10.20;99.90
25410;DHT22;13339;50.840;4.346;2024-03-29T05:22:36;10.30;99.90
25410;DHT22;13339;50.840;4.346;2024-03-29T05:25:02;10.50;99.90
25410;DHT22;13339;50.840;4.346;2024-03-29T05:27:29;10.60;99.90
25410;DHT22;13339;50.840;4.346;2024-03-29T05:29:55;10.70;99.90
25410;DHT22;13339;50.840;4.346;2024-03-29T05:32:21;10.80;99.90
25410;DHT22;13339;50.840;4.346;2024-03-29T05:34:46;10.90;99.90
25410;DHT22;13339;50.840;4.346;2024-03-29T05:37:12;10.90;99.90
25410;DHT22;13339;50.840;4.346;2024-03-29T05:39:37;11.10;99.90
25410;DHT22;13339;50.840;4.346;2024-03-29T05:42:03;11.00;99.90
25410;DHT22;13339;50.840;4.346;2024-03-29T05:44:31;11.10;99.90
25410;DHT22;13339;50.840;4.346;2024-03-29T05:46:57;11.10;99.90
25410;DHT22;13339;50.840;4.346;2024-03-29T05:49:22;11.10;99.90
25410;DHT22;13339;50.840;4.346;2024-03-29T05:51:48;11.20;99.90
25410;DHT22;13339;50.840;4.346;2024-03-29T05:54:15;11.30;99.90
25410;DHT22;13339;50.840;4.346;2024-03-29T05:56:41;11.40;99.90
25410;DHT22;13339;50.840;4.346;2024-03-29T05:59:06;11.40;99.90
25410;DHT22;13339;50.840;4.346;2024-03-29T06:01:32;11.40;99.90
25410;DHT22;13339;50.840;4.346;2024-03-29T06:03:58;11.40;99.90
25410;DHT22;13339;50.840;4.346;2024-03-29T06:06:30;11.50;99.90
25410;DHT22;13339;50.840;4.346;2024-03-29T06:08:55;11.50;99.90
25410;DHT22;13339;50.840;4.346;2024-03-29T06:11:21;11.40;99.90
25410;DHT22;13339;50.840;4.346;2024-03-29T06:13:46;11.30;99.90
25410;DHT22;13339;50.840;4.346;2024-03-29T06:16:20;11.20;99.90
25410;DHT22;13339;50.840;4.346;2024-03-29T06:19:04;11.20;99.90
25410;DHT22;13339;50.840;4.346;2024-03-29T06:21:30;11.20;99.90
25410;DHT22;13339;50.840;4.346;2024-03-29T06:24:11;11.30;99.90
25410;DHT22;13339;50.840;4.346;2024-03-29T06:26:41;11.20;99.90
25410;DHT22;13339;50.840;4.346;2024-03-29T06:29:09;11.30;99.90
25410;DHT22;13339;50.840;4.346;2024-03-29T06:31:35;11.30;99.90
25410;DHT22;13339;50.840;4.346;2024-03-29T06:34:01;11.30;99.90
25410;DHT22;13339;50.840;4.346;2024-03-29T06:36:27;11.40;99.90
25410;DHT22;13339;50.840;4.346;2024-03-29T06:38:56;11.40;99.90
25410;DHT22;13339;50.840;4.346;2024-03-29T06:41:21;11.50;99.90
25410;DHT22;13339;50.840;4.346;2024-03-29T06:43:47;11.60;99.90
25410;DHT22;13339;50.840;4.346;2024-03-29T06:46:13;11.70;99.90
25410;DHT22;13339;50.840;4.346;2024-03-29T06:48:40;11.70;99.90
25410;DHT22;13339;50.840;4.346;2024-03-29T06:51:05;11.80;99.90
25410;DHT22;13339;50.840;4.346;2024-03-29T06:53:31;11.90;99.90
25410;DHT22;13339;50.840;4.346;2024-03-29T06:55:59;11.90;99.90
25410;DHT22;13339;50.840;4.346;2024-03-29T06:58:25;12.00;99.90
25410;DHT22;13339;50.840;4.346;2024-03-29T07:00:51;12.10;99.90
25410;DHT22;13339;50.840;4.346;2024-03-29T07:03:18;12.00;99.90
25410;DHT22;13339;50.840;4.346;2024-03-29T07:05:47;12.10;99.90
25410;DHT22;13339;50.840;4.346;2024-03-29T07:08:13;12.10;99.90
25410;DHT22;13339;50.840;4.346;2024-03-29T07:10:38;12.20;99.90
25410;DHT22;13339;50.840;4.346;2024-03-29T07:13:06;12.20;99.90
25410;DHT22;13339;50.840;4.346;2024-03-29T07:15:31;12.20;99.90
25410;DHT22;13339;50.840;4.346;2024-03-29T07:17:57;12.30;99.90
25410;DHT22;13339;50.840;4.346;2024-03-29T07:20:25;12.30;99.90
25410;DHT22;13339;50.840;4.346;2024-03-29T07:22:51;12.20;99.90
25410;DHT22;13339;50.840;4.346;2024-03-29T07:25:16;12.30;99.90
25410;DHT22;13339;50.840;4.346;2024-03-29T07:27:42;12.50;99.90
25410;DHT22;13339;50.840;4.346;2024-03-29T07:30:09;12.60;99.90
25410;DHT22;13339;50.840;4.346;2024-03-29T07:32:36;12.60;99.90
25410;DHT22;13339;50.840;4.346;2024-03-29T07:35:02;12.70;99.90
25410;DHT22;13339;50.840;4.346;2024-03-29T07:37:28;12.70;99.90
25410;DHT22;13339;50.840;4.346;2024-03-29T07:39:54;12.80;99.90
25410;DHT22;13339;50.840;4.346;2024-03-29T07:42:19;12.70;99.90
25410;DHT22;13339;50.840;4.346;2024-03-29T07:44:45;12.70;99.90
25410;DHT22;13339;50.840;4.346;2024-03-29T07:47:11;12.70;99.90
25410;DHT22;13339;50.840;4.346;2024-03-29T07:49:38;12.80;99.90
25410;DHT22;13339;50.840;4.346;2024-03-29T07:52:04;12.80;99.90
25410;DHT22;13339;50.840;4.346;2024-03-29T07:54:32;12.80;99.90
25410;DHT22;13339;50.840;4.346;2024-03-29T07:56:57;12.90;99.90
25410;DHT22;13339;50.840;4.346;2024-03-29T07:59:23;12.90;99.90
25410;DHT22;13339;50.840;4.346;2024-03-29T08:01:49;13.00;99.90
25410;DHT22;13339;50.840;4.346;2024-03-29T08:04:15;13.20;99.90
25410;DHT22;13339;50.840;4.346;2024-03-29T08:06:41;13.40;99.90
25410;DHT22;13339;50.840;4.346;2024-03-29T08:09:07;13.40;99.90
25410;DHT22;13339;50.840;4.346;2024-03-29T08:11:32;13.50;99.90
25410;DHT22;13339;50.840;4.346;2024-03-29T08:13:58;13.50;99.90
25410;DHT22;13339;50.840;4.346;2024-03-29T08:16:23;13.50;99.90
25410;DHT22;13339;50.840;4.346;2024-03-29T08:18:49;13.50;99.90
25410;DHT22;13339;50.840;4.346;2024-03-29T08:21:15;13.50;99.90
25410;DHT22;13339;50.840;4.346;2024-03-29T08:23:41;13.50;99.90
25410;DHT22;13339;50.840;4.346;2024-03-29T08:26:07;13.50;99.90
25410;DHT22;13339;50.840;4.346;2024-03-29T08:28:33;13.40;99.90
25410;DHT22;13339;50.840;4.346;2024-03-29T08:31:03;13.50;99.90
25410;DHT22;13339;50.840;4.346;2024-03-29T08:33:29;13.60;99.90
25410;DHT22;13339;50.840;4.346;2024-03-29T08:35:57;13.40;99.90
25410;DHT22;13339;50.840;4.346;2024-03-29T08:38:23;13.50;99.90
25410;DHT22;13339;50.840;4.346;2024-03-29T08:40:49;13.50;99.90
25410;DHT22;13339;50.840;4.346;2024-03-29T08:43:15;13.60;99.90
25410;DHT22;13339;50.840;4.346;2024-03-29T08:45:42;13.70;99.90
25410;DHT22;13339;50.840;4.346;2024-03-29T08:48:08;13.60;99.90
25410;DHT22;13339;50.840;4.346;2024-03-29T08:50:34;13.60;99.90
25410;DHT22;13339;50.840;4.346;2024-03-29T08:53:01;13.70;99.90
25410;DHT22;13339;50.840;4.346;2024-03-29T08:55:26;13.80;99.90
25410;DHT22;13339;50.840;4.346;2024-03-29T08:57:52;13.90;99.90
25410;DHT22;13339;50.840;4.346;2024-03-29T09:00:18;13.90;99.90
25410;DHT22;13339;50.840;4.346;2024-03-29T09:02:43;14.00;99.90
25410;DHT22;13339;50.840;4.346;2024-03-29T09:05:11;14.20;99.90
25410;DHT22;13339;50.840;4.346;2024-03-29T09:07:36;14.20;99.90
25410;DHT22;13339;50.840;4.346;2024-03-29T09:10:04;14.20;99.90
25410;DHT22;13339;50.840;4.346;2024-03-29T09:12:30;14.30;99.90
25410;DHT22;13339;50.840;4.346;2024-03-29T09:14:55;14.30;99.90
25410;DHT22;13339;50.840;4.346;2024-03-29T09:17:21;14.30;99.90
25410;DHT22;13339;50.840;4.346;2024-03-29T09:19:50;14.20;99.90
25410;DHT22;13339;50.840;4.346;2024-03-29T09:22:17;14.30;99.90
25410;DHT22;13339;50.840;4.346;2024-03-29T09:24:43;14.40;99.90
25410;DHT22;13339;50.840;4.346;2024-03-29T09:27:08;14.50;99.90
25410;DHT22;13339;50.840;4.346;2024-03-29T09:29:34;14.40;99.90
25410;DHT22;13339;50.840;4.346;2024-03-29T09:32:00;14.40;99.90
25410;DHT22;13339;50.840;4.346;2024-03-29T09:34:27;14.50;99.90
25410;DHT22;13339;50.840;4.346;2024-03-29T09:36:53;14.50;99.90
25410;DHT22;13339;50.840;4.346;2024-03-29T09:39:19;14.60;99.90
25410;DHT22;13339;50.840;4.346;2024-03-29T09:41:45;14.60;99.90
25410;DHT22;13339;50.840;4.346;2024-03-29T09:44:11;14.60;99.90
25410;DHT22;13339;50.840;4.346;2024-03-29T09:46:37;14.70;99.90
25410;DHT22;13339;50.840;4.346;2024-03-29T09:49:08;14.60;99.90
25410;DHT22;13339;50.840;4.346;2024-03-29T09:51:35;14.60;99.90
25410;DHT22;13339;50.840;4.346;2024-03-29T09:54:03;14.70;99.90
25410;DHT22;13339;50.840;4.346;2024-03-29T09:56:33;14.70;99.90
25410;DHT22;13339;50.840;4.346;2024-03-29T09:59:00;14.80;99.90
25410;DHT22;13339;50.840;4.346;2024-03-29T10:01:27;15.00;99.90
25410;DHT22;13339;50.840;4.346;2024-03-29T10:03:53;14.90;99.90
25410;DHT22;13339;50.840;4.346;2024-03-29T10:06:23;14.90;99.90
25410;DHT22;13339;50.840;4.346;2024-03-29T10:08:49;15.00;99.90
25410;DHT22;13339;50.840;4.346;2024-03-29T10:11:15;15.10;99.90
25410;DHT22;13339;50.840;4.346;2024-03-29T10:13:45;15.20;99.90
25410;DHT22;13339;50.840;4.346;2024-03-29T10:16:11;15.20;99.90
25410;DHT22;13339;50.840;4.346;2024-03-29T10:18:37;15.20;99.90
25410;DHT22;13339;50.840;4.346;2024-03-29T10:21:06;15.30;99.90
25410;DHT22;13339;50.840;4.346;2024-03-29T10:23:34;15.30;99.90
25410;DHT22;13339;50.840;4.346;2024-03-29T10:26:03;15.20;99.90
25410;DHT22;13339;50.840;4.346;2024-03-29T10:28:33;15.30;99.90
25410;DHT22;13339;50.840;4.346;2024-03-29T10:31:01;15.50;99.90
25410;DHT22;13339;50.840;4.346;2024-03-29T10:33:29;15.60;99.90
25410;DHT22;13339;50.840;4.346;2024-03-29T10:36:02;15.50;99.90
25410;DHT22;13339;50.840;4.346;2024-03-29T10:38:31;15.60;99.90
25410;DHT22;13339;50.840;4.346;2024-03-29T10:40:57;15.60;99.90
25410;DHT22;13339;50.840;4.346;2024-03-29T10:43:24;15.50;99.90
25410;DHT22;13339;50.840;4.346;2024-03-29T10:45:50;15.50;99.90
25410;DHT22;13339;50.840;4.346;2024-03-29T10:48:25;15.60;99.90
25410;DHT22;13339;50.840;4.346;2024-03-29T10:50:56;15.70;99.90
25410;DHT22;13339;50.840;4.346;2024-03-29T10:53:24;15.80;99.90
25410;DHT22;13339;50.840;4.346;2024-03-29T10:55:57;15.80;99.90
25410;DHT22;13339;50.840;4.346;2024-03-29T10:58:30;15.90;99.90
25410;DHT22;13339;50.840;4.346;2024-03-29T11:00:57;15.90;99.90
25410;DHT22;13339;50.840;4.346;2024-03-29T11:03:38;15.70;99.90
25410;DHT22;13339;50.840;4.346;2024-03-29T11:06:06;15.80;99.90
25410;DHT22;13339;50.840;4.346;2024-03-29T11:08:36;16.00;99.90
25410;DHT22;13339;50.840;4.346;2024-03-29T11:11:07;16.10;99.90
25410;DHT22;13339;50.840;4.346;2024-03-29T11:14:05;16.20;99.90
25410;DHT22;13339;50.840;4.346;2024-03-29T11:16:33;16.40;99.90
25410;DHT22;13339;50.840;4.346;2024-03-29T11:18:59;16.50;99.90
25410;DHT22;13339;50.840;4.346;2024-03-29T11:21:28;16.70;99.90
25410;DHT22;13339;50.840;4.346;2024-03-29T11:23:56;16.80;99.90
25410;DHT22;13339;50.840;4.346;2024-03-29T11:26:23;16.90;99.90
25410;DHT22;13339;50.840;4.346;2024-03-29T11:28:52;16.80;99.90
25410;DHT22;13339;50.840;4.346;2024-03-29T11:31:22;16.90;99.90
25410;DHT22;13339;50.840;4.346;2024-03-29T11:33:48;16.70;99.90
25410;DHT22;13339;50.840;4.346;2024-03-29T11:36:21;16.90;99.90
25410;DHT22;13339;50.840;4.346;2024-03-29T11:38:53;17.00;99.90
25410;DHT22;13339;50.840;4.346;2024-03-29T11:41:22;17.00;99.90
25410;DHT22;13339;50.840;4.346;2024-03-29T11:43:53;17.10;99.90
25410;DHT22;13339;50.840;4.346;2024-03-29T11:46:19;17.20;99.90
25410;DHT22;13339;50.840;4.346;2024-03-29T11:48:46;17.30;99.90
25410;DHT22;13339;50.840;4.346;2024-03-29T11:51:16;17.30;99.90
25410;DHT22;13339;50.840;4.346;2024-03-29T11:53:42;17.30;99.90
25410;DHT22;13339;50.840;4.346;2024-03-29T11:56:09;17.20;99.90
25410;DHT22;13339;50.840;4.346;2024-03-29T11:58:37;17.40;99.90
25410;DHT22;13339;50.840;4.346;2024-03-29T12:01:03;17.20;99.90
25410;DHT22;13339;50.840;4.346;2024-03-29T12:03:30;17.20;99.90
25410;DHT22;13339;50.840;4.346;2024-03-29T12:05:57;17.30;99.90
25410;DHT22;13339;50.840;4.346;2024-03-29T12:08:30;17.20;99.90
25410;DHT22;13339;50.840;4.346;2024-03-29T12:10:58;17.00;99.90
25410;DHT22;13339;50.840;4.346;2024-03-29T12:13:23;17.00;99.90
25410;DHT22;13339;50.840;4.346;2024-03-29T12:15:49;17.10;99.90
25410;DHT22;13339;50.840;4.346;2024-03-29T12:18:15;17.20;99.90
25410;DHT22;13339;50.840;4.346;2024-03-29T12:20:42;17.40;99.90
25410;DHT22;13339;50.840;4.346;2024-03-29T12:23:12;17.20;99.90
25410;DHT22;13339;50.840;4.346;2024-03-29T12:25:39;17.20;99.90
25410;DHT22;13339;50.840;4.346;2024-03-29T12:28:05;17.10;99.90
25410;DHT22;13339;50.840;4.346;2024-03-29T12:30:32;17.10;99.90
25410;DHT22;13339;50.840;4.346;2024-03-29T12:33:05;17.20;99.90
25410;DHT22;13339;50.840;4.346;2024-03-29T12:35:41;17.20;99.90
25410;DHT22;13339;50.840;4.346;2024-03-29T12:38:11;17.10;99.90
25410;DHT22;13339;50.840;4.346;2024-03-29T12:40:40;17.00;99.90
25410;DHT22;13339;50.840;4.346;2024-03-29T12:43:07;17.20;99.90
25410;DHT22;13339;50.840;4.346;2024-03-29T12:45:34;17.30;99.90
25410;DHT22;13339;50.840;4.346;2024-03-29T12:48:00;17.40;99.90
25410;DHT22;13339;50.840;4.346;2024-03-29T12:50:27;17.40;99.90
25410;DHT22;13339;50.840;4.346;2024-03-29T12:52:56;17.40;99.90
25410;DHT22;13339;50.840;4.346;2024-03-29T12:55:24;17.40;99.90
25410;DHT22;13339;50.840;4.346;2024-03-29T12:57:50;17.40;99.90
25410;DHT22;13339;50.840;4.346;2024-03-29T13:00:19;17.50;99.90
25410;DHT22;13339;50.840;4.346;2024-03-29T13:02:45;17.50;99.90
25410;DHT22;13339;50.840;4.346;2024-03-29T13:05:11;17.50;99.90
25410;DHT22;13339;50.840;4.346;2024-03-29T13:07:36;17.50;99.90
25410;DHT22;13339;50.840;4.346;2024-03-29T13:10:03;17.50;99.90
25410;DHT22;13339;50.840;4.346;2024-03-29T13:12:36;17.60;99.90
25410;DHT22;13339;50.840;4.346;2024-03-29T13:15:03;17.60;99.90
25410;DHT22;13339;50.840;4.346;2024-03-29T13:17:32;17.60;99.90
25410;DHT22;13339;50.840;4.346;2024-03-29T13:19:57;17.60;99.90
25410;DHT22;13339;50.840;4.346;2024-03-29T13:22:23;17.50;99.90
25410;DHT22;13339;50.840;4.346;2024-03-29T13:24:49;17.60;99.90
25410;DHT22;13339;50.840;4.346;2024-03-29T13:27:15;17.70;99.90
25410;DHT22;13339;50.840;4.346;2024-03-29T13:29:42;17.70;99.90
25410;DHT22;13339;50.840;4.346;2024-03-29T13:32:08;17.80;99.90
25410;DHT22;13339;50.840;4.346;2024-03-29T13:34:33;17.90;99.90
25410;DHT22;13339;50.840;4.346;2024-03-29T13:36:59;17.90;99.90
25410;DHT22;13339;50.840;4.346;2024-03-29T13:39:24;17.90;99.90
25410;DHT22;13339;50.840;4.346;2024-03-29T13:41:50;17.90;99.90
25410;DHT22;13339;50.840;4.346;2024-03-29T13:44:18;17.80;99.90
25410;DHT22;13339;50.840;4.346;2024-03-29T13:46:44;17.70;99.90
25410;DHT22;13339;50.840;4.346;2024-03-29T13:49:10;17.70;99.90
25410;DHT22;13339;50.840;4.346;2024-03-29T13:51:37;17.80;99.90
25410;DHT22;13339;50.840;4.346;2024-03-29T13:54:03;18.00;99.90
25410;DHT22;13339;50.840;4.346;2024-03-29T13:56:29;18.10;99.90
25410;DHT22;13339;50.840;4.346;2024-03-29T13:58:54;17.90;99.90
25410;DHT22;13339;50.840;4.346;2024-03-29T14:01:20;17.80;99.90
25410;DHT22;13339;50.840;4.346;2024-03-29T14:03:46;17.70;99.90
25410;DHT22;13339;50.840;4.346;2024-03-29T14:06:11;17.70;99.90
25410;DHT22;13339;50.840;4.346;2024-03-29T14:08:37;17.70;99.90
25410;DHT22;13339;50.840;4.346;2024-03-29T14:11:03;17.80;99.90
25410;DHT22;13339;50.840;4.346;2024-03-29T14:13:28;17.90;99.90
25410;DHT22;13339;50.840;4.346;2024-03-29T14:15:54;17.80;99.90
25410;DHT22;13339;50.840;4.346;2024-03-29T14:18:21;17.80;99.90
25410;DHT22;13339;50.840;4.346;2024-03-29T14:20:47;17.90;99.90
25410;DHT22;13339;50.840;4.346;2024-03-29T14:23:12;17.90;99.90
25410;DHT22;13339;50.840;4.346;2024-03-29T14:25:42;17.80;99.90
25410;DHT22;13339;50.840;4.346;2024-03-29T14:28:08;17.80;99.90
25410;DHT22;13339;50.840;4.346;2024-03-29T14:30:34;17.80;99.90
25410;DHT22;13339;50.840;4.346;2024-03-29T14:33:00;17.80;99.90
25410;DHT22;13339;50.840;4.346;2024-03-29T14:35:32;17.90;99.90
25410;DHT22;13339;50.840;4.346;2024-03-29T14:37:57;17.90;99.90
25410;DHT22;13339;50.840;4.346;2024-03-29T14:40:23;17.90;99.90
25410;DHT22;13339;50.840;4.346;2024-03-29T14:42:49;17.90;99.90
25410;DHT22;13339;50.840;4.346;2024-03-29T14:45:15;17.90;99.90
25410;DHT22;13339;50.840;4.346;2024-03-29T14:47:41;17.80;99.90
25410;DHT22;13339;50.840;4.346;2024-03-29T14:50:07;17.80;99.90
25410;DHT22;13339;50.840;4.346;2024-03-29T14:52:34;17.90;99.90
25410;DHT22;13339;50.840;4.346;2024-03-29T14:55:00;17.80;99.90
25410;DHT22;13339;50.840;4.346;2024-03-29T14:57:25;18.00;99.90
25410;DHT22;13339;50.840;4.346;2024-03-29T14:59:51;18.10;99.90
25410;DHT22;13339;50.840;4.346;2024-03-29T15:02:17;18.00;99.90
25410;DHT22;13339;50.840;4.346;2024-03-29T15:04:43;18.00;99.90
25410;DHT22;13339;50.840;4.346;2024-03-29T15:07:09;18.00;99.90
25410;DHT22;13339;50.840;4.346;2024-03-29T15:09:34;17.80;99.90
25410;DHT22;13339;50.840;4.346;2024-03-29T15:12:01;17.60;99.90
25410;DHT22;13339;50.840;4.346;2024-03-29T15:14:29;17.80;99.90
25410;DHT22;13339;50.840;4.346;2024-03-29T15:16:54;17.90;99.90
25410;DHT22;13339;50.840;4.346;2024-03-29T15:19:21;18.10;99.90
25410;DHT22;13339;50.840;4.346;2024-03-29T15:21:47;18.00;99.90
25410;DHT22;13339;50.840;4.346;2024-03-29T15:24:14;18.10;99.90
25410;DHT22;13339;50.840;4.346;2024-03-29T15:26:41;18.10;99.90
25410;DHT22;13339;50.840;4.346;2024-03-29T15:29:06;18.20;99.90